sensor_id;sensor_type;location;lat;lon;timestamp;P1;durP1;ratioP1;P2;durP2;ratioP2
75071;SDS011;63651;55.728;38.022;2023-03-14T00:04:18;3.38;;;1.75;;
75071;SDS011;63651;55.728;38.022;2023-03-14T00:09:38;3.58;;;1.98;;
75071;SDS011;63651;55.728;38.022;2023-03-14T00:14:57;2.85;;;1.67;;
75071;SDS011;63651;55.728;38.022;2023-03-14T00:20:19;3.50;;;1.67;;
75071;SDS011;63651;55.728;38.022;2023-03-14T00:25:39;3.90;;;1.80;;
75071;SDS011;63651;55.728;38.022;2023-03-14T00:30:58;3.60;;;2.08;;
75071;SDS011;63651;55.728;38.022;2023-03-14T00:36:17;2.33;;;1.50;;
75071;SDS011;63651;55.728;38.022;2023-03-14T00:41:48;3.05;;;1.92;;
75071;SDS011;63651;55.728;38.022;2023-03-14T00:47:07;2.38;;;1.50;;
75071;SDS011;63651;55.728;38.022;2023-03-14T00:52:27;2.42;;;1.38;;
75071;SDS011;63651;55.728;38.022;2023-03-14T00:57:28;3.78;;;1.38;;
75071;SDS011;63651;55.728;38.022;2023-03-14T01:02:29;2.17;;;1.60;;
75071;SDS011;63651;55.728;38.022;2023-03-14T01:07:30;2.22;;;1.50;;
75071;SDS011;63651;55.728;38.022;2023-03-14T01:12:31;3.00;;;1.27;;
75071;SDS011;63651;55.728;38.022;2023-03-14T01:17:32;2.88;;;1.20;;
75071;SDS011;63651;55.728;38.022;2023-03-14T01:22:52;2.45;;;1.35;;
75071;SDS011;63651;55.728;38.022;2023-03-14T01:28:12;1.88;;;1.10;;
75071;SDS011;63651;55.728;38.022;2023-03-14T01:33:32;2.25;;;1.60;;
75071;SDS011;63651;55.728;38.022;2023-03-14T01:38:33;2.25;;;1.08;;
75071;SDS011;63651;55.728;38.022;2023-03-14T01:43:36;2.08;;;1.20;;
75071;SDS011;63651;55.728;38.022;2023-03-14T01:48:38;2.25;;;1.13;;
75071;SDS011;63651;55.728;38.022;2023-03-14T01:53:46;2.30;;;1.27;;
75071;SDS011;63651;55.728;38.022;2023-03-14T01:58:50;2.10;;;1.00;;
75071;SDS011;63651;55.728;38.022;2023-03-14T02:03:56;2.38;;;1.25;;
75071;SDS011;63651;55.728;38.022;2023-03-14T02:09:00;1.73;;;1.00;;
75071;SDS011;63651;55.728;38.022;2023-03-14T02:14:02;3.88;;;1.05;;
75071;SDS011;63651;55.728;38.022;2023-03-14T02:19:04;1.92;;;1.00;;
75071;SDS011;63651;55.728;38.022;2023-03-14T02:29:27;1.98;;;1.27;;
75071;SDS011;63651;55.728;38.022;2023-03-14T02:34:30;3.17;;;1.08;;
75071;SDS011;63651;55.728;38.022;2023-03-14T02:39:36;1.77;;;0.95;;
75071;SDS011;63651;55.728;38.022;2023-03-14T02:50:17;2.42;;;1.30;;
75071;SDS011;63651;55.728;38.022;2023-03-14T02:55:22;2.47;;;1.20;;
75071;SDS011;63651;55.728;38.022;2023-03-14T03:00:24;2.33;;;1.33;;
75071;SDS011;63651;55.728;38.022;2023-03-14T03:05:25;2.38;;;1.40;;
75071;SDS011;63651;55.728;38.022;2023-03-14T03:10:26;2.85;;;1.15;;
75071;SDS011;63651;55.728;38.022;2023-03-14T03:15:28;2.42;;;1.50;;
75071;SDS011;63651;55.728;38.022;2023-03-14T03:20:30;1.83;;;1.48;;
75071;SDS011;63651;55.728;38.022;2023-03-14T03:25:31;2.13;;;1.42;;
75071;SDS011;63651;55.728;38.022;2023-03-14T03:30:32;2.05;;;1.13;;
75071;SDS011;63651;55.728;38.022;2023-03-14T03:35:34;2.40;;;1.20;;
75071;SDS011;63651;55.728;38.022;2023-03-14T03:40:35;2.22;;;1.70;;
75071;SDS011;63651;55.728;38.022;2023-03-14T03:45:36;2.22;;;1.35;;
75071;SDS011;63651;55.728;38.022;2023-03-14T03:50:43;3.13;;;1.27;;
75071;SDS011;63651;55.728;38.022;2023-03-14T03:55:45;3.05;;;1.23;;
75071;SDS011;63651;55.728;38.022;2023-03-14T04:00:46;3.58;;;1.50;;
75071;SDS011;63651;55.728;38.022;2023-03-14T04:05:57;2.97;;;1.23;;
75071;SDS011;63651;55.728;38.022;2023-03-14T04:11:00;2.55;;;1.33;;
75071;SDS011;63651;55.728;38.022;2023-03-14T04:16:02;2.20;;;1.50;;
75071;SDS011;63651;55.728;38.022;2023-03-14T04:21:03;2.45;;;1.02;;
75071;SDS011;63651;55.728;38.022;2023-03-14T04:26:04;2.25;;;1.40;;
75071;SDS011;63651;55.728;38.022;2023-03-14T04:31:09;2.92;;;1.33;;
75071;SDS011;63651;55.728;38.022;2023-03-14T04:36:11;2.92;;;1.13;;
75071;SDS011;63651;55.728;38.022;2023-03-14T04:41:13;2.92;;;1.52;;
75071;SDS011;63651;55.728;38.022;2023-03-14T04:46:14;3.92;;;1.50;;
75071;SDS011;63651;55.728;38.022;2023-03-14T04:51:15;2.53;;;1.05;;
75071;SDS011;63651;55.728;38.022;2023-03-14T04:56:16;2.78;;;1.13;;
75071;SDS011;63651;55.728;38.022;2023-03-14T05:01:17;6.53;;;1.98;;
75071;SDS011;63651;55.728;38.022;2023-03-14T05:06:18;5.18;;;2.08;;
75071;SDS011;63651;55.728;38.022;2023-03-14T05:11:19;8.10;;;2.10;;
75071;SDS011;63651;55.728;38.022;2023-03-14T05:16:20;6.25;;;1.90;;
75071;SDS011;63651;55.728;38.022;2023-03-14T05:21:21;10.30;;;3.20;;
75071;SDS011;63651;55.728;38.022;2023-03-14T05:26:22;8.43;;;1.92;;
75071;SDS011;63651;55.728;38.022;2023-03-14T05:31:24;6.68;;;2.00;;
75071;SDS011;63651;55.728;38.022;2023-03-14T05:36:25;5.72;;;1.98;;
75071;SDS011;63651;55.728;38.022;2023-03-14T05:41:26;7.18;;;1.88;;
75071;SDS011;63651;55.728;38.022;2023-03-14T05:46:27;6.95;;;2.45;;
75071;SDS011;63651;55.728;38.022;2023-03-14T05:51:28;6.18;;;2.00;;
75071;SDS011;63651;55.728;38.022;2023-03-14T05:56:29;6.43;;;2.25;;
75071;SDS011;63651;55.728;38.022;2023-03-14T06:01:30;5.28;;;1.80;;
75071;SDS011;63651;55.728;38.022;2023-03-14T06:06:31;5.97;;;1.70;;
75071;SDS011;63651;55.728;38.022;2023-03-14T06:11:32;5.00;;;1.95;;
75071;SDS011;63651;55.728;38.022;2023-03-14T06:16:33;4.75;;;1.77;;
75071;SDS011;63651;55.728;38.022;2023-03-14T06:21:34;3.78;;;1.88;;
75071;SDS011;63651;55.728;38.022;2023-03-14T06:26:35;3.40;;;1.85;;
75071;SDS011;63651;55.728;38.022;2023-03-14T06:31:36;4.38;;;1.90;;
75071;SDS011;63651;55.728;38.022;2023-03-14T06:36:37;4.03;;;1.80;;
75071;SDS011;63651;55.728;38.022;2023-03-14T06:41:38;5.82;;;1.40;;
75071;SDS011;63651;55.728;38.022;2023-03-14T06:46:39;4.05;;;1.50;;
75071;SDS011;63651;55.728;38.022;2023-03-14T06:51:41;4.65;;;2.35;;
75071;SDS011;63651;55.728;38.022;2023-03-14T06:56:42;3.70;;;1.80;;
75071;SDS011;63651;55.728;38.022;2023-03-14T07:01:43;4.90;;;2.40;;
75071;SDS011;63651;55.728;38.022;2023-03-14T07:06:44;5.70;;;2.55;;
75071;SDS011;63651;55.728;38.022;2023-03-14T07:11:46;8.07;;;2.20;;
75071;SDS011;63651;55.728;38.022;2023-03-14T07:16:48;3.17;;;1.83;;
75071;SDS011;63651;55.728;38.022;2023-03-14T07:21:48;3.90;;;1.85;;
75071;SDS011;63651;55.728;38.022;2023-03-14T07:26:49;3.55;;;2.15;;
75071;SDS011;63651;55.728;38.022;2023-03-14T07:31:51;4.43;;;2.17;;
75071;SDS011;63651;55.728;38.022;2023-03-14T07:36:52;5.05;;;2.00;;
75071;SDS011;63651;55.728;38.022;2023-03-14T07:41:53;4.68;;;1.83;;
75071;SDS011;63651;55.728;38.022;2023-03-14T07:46:54;3.97;;;2.15;;
75071;SDS011;63651;55.728;38.022;2023-03-14T07:51:55;5.30;;;1.67;;
75071;SDS011;63651;55.728;38.022;2023-03-14T07:56:56;3.60;;;1.92;;
75071;SDS011;63651;55.728;38.022;2023-03-14T08:01:59;4.20;;;1.63;;
75071;SDS011;63651;55.728;38.022;2023-03-14T08:07:00;3.95;;;1.58;;
75071;SDS011;63651;55.728;38.022;2023-03-14T08:12:01;5.35;;;1.75;;
75071;SDS011;63651;55.728;38.022;2023-03-14T08:17:02;5.80;;;1.67;;
75071;SDS011;63651;55.728;38.022;2023-03-14T08:22:04;3.15;;;1.70;;
75071;SDS011;63651;55.728;38.022;2023-03-14T08:27:05;4.25;;;2.15;;
75071;SDS011;63651;55.728;38.022;2023-03-14T08:32:06;4.97;;;1.98;;
75071;SDS011;63651;55.728;38.022;2023-03-14T08:37:07;2.70;;;1.65;;
75071;SDS011;63651;55.728;38.022;2023-03-14T08:42:08;3.47;;;1.58;;
75071;SDS011;63651;55.728;38.022;2023-03-14T08:47:09;2.83;;;1.58;;
75071;SDS011;63651;55.728;38.022;2023-03-14T08:52:11;3.67;;;1.90;;
75071;SDS011;63651;55.728;38.022;2023-03-14T08:57:12;3.10;;;1.48;;
75071;SDS011;63651;55.728;38.022;2023-03-14T09:02:16;3.42;;;1.50;;
75071;SDS011;63651;55.728;38.022;2023-03-14T09:07:17;2.88;;;1.52;;
75071;SDS011;63651;55.728;38.022;2023-03-14T09:12:18;3.17;;;1.85;;
75071;SDS011;63651;55.728;38.022;2023-03-14T09:17:20;2.83;;;1.65;;
75071;SDS011;63651;55.728;38.022;2023-03-14T09:22:21;2.97;;;1.60;;
75071;SDS011;63651;55.728;38.022;2023-03-14T09:27:22;3.15;;;1.67;;
75071;SDS011;63651;55.728;38.022;2023-03-14T09:32:23;2.53;;;1.48;;
75071;SDS011;63651;55.728;38.022;2023-03-14T09:37:24;4.50;;;1.88;;
75071;SDS011;63651;55.728;38.022;2023-03-14T09:42:26;2.53;;;1.70;;
75071;SDS011;63651;55.728;38.022;2023-03-14T09:47:28;3.63;;;1.75;;
75071;SDS011;63651;55.728;38.022;2023-03-14T09:52:35;2.15;;;1.50;;
75071;SDS011;63651;55.728;38.022;2023-03-14T09:57:40;1.98;;;1.38;;
75071;SDS011;63651;55.728;38.022;2023-03-14T10:02:43;4.05;;;1.60;;
75071;SDS011;63651;55.728;38.022;2023-03-14T10:08:15;3.15;;;1.40;;
75071;SDS011;63651;55.728;38.022;2023-03-14T10:18:19;2.75;;;1.40;;
75071;SDS011;63651;55.728;38.022;2023-03-14T10:23:23;4.72;;;2.33;;
75071;SDS011;63651;55.728;38.022;2023-03-14T10:28:30;3.17;;;1.83;;
75071;SDS011;63651;55.728;38.022;2023-03-14T10:33:35;3.15;;;2.00;;
75071;SDS011;63651;55.728;38.022;2023-03-14T10:38:37;2.30;;;1.75;;
75071;SDS011;63651;55.728;38.022;2023-03-14T10:43:38;2.20;;;1.55;;
75071;SDS011;63651;55.728;38.022;2023-03-14T10:48:41;3.15;;;1.70;;
75071;SDS011;63651;55.728;38.022;2023-03-14T10:53:46;2.92;;;1.38;;
75071;SDS011;63651;55.728;38.022;2023-03-14T10:58:58;2.40;;;1.70;;
75071;SDS011;63651;55.728;38.022;2023-03-14T11:31:35;2.80;;;1.70;;
75071;SDS011;63651;55.728;38.022;2023-03-14T11:36:41;2.20;;;1.60;;
75071;SDS011;63651;55.728;38.022;2023-03-14T11:42:03;2.78;;;1.90;;
75071;SDS011;63651;55.728;38.022;2023-03-14T11:47:21;2.33;;;1.52;;
75071;SDS011;63651;55.728;38.022;2023-03-14T11:57:36;3.10;;;1.52;;
75071;SDS011;63651;55.728;38.022;2023-03-14T12:13:11;2.05;;;1.58;;
75071;SDS011;63651;55.728;38.022;2023-03-14T12:18:18;3.40;;;1.73;;
75071;SDS011;63651;55.728;38.022;2023-03-14T12:23:21;3.33;;;1.60;;
75071;SDS011;63651;55.728;38.022;2023-03-14T12:28:30;5.97;;;1.73;;
75071;SDS011;63651;55.728;38.022;2023-03-14T12:33:32;2.10;;;1.65;;
75071;SDS011;63651;55.728;38.022;2023-03-14T12:43:37;4.13;;;1.77;;
75071;SDS011;63651;55.728;38.022;2023-03-14T12:48:39;2.25;;;1.38;;
75071;SDS011;63651;55.728;38.022;2023-03-14T12:58:54;2.00;;;1.30;;
75071;SDS011;63651;55.728;38.022;2023-03-14T13:04:02;1.63;;;0.93;;
75071;SDS011;63651;55.728;38.022;2023-03-14T13:14:34;3.50;;;1.80;;
75071;SDS011;63651;55.728;38.022;2023-03-14T13:19:37;3.00;;;1.55;;
75071;SDS011;63651;55.728;38.022;2023-03-14T13:24:39;2.10;;;1.67;;
75071;SDS011;63651;55.728;38.022;2023-03-14T13:29:40;2.83;;;1.40;;
75071;SDS011;63651;55.728;38.022;2023-03-14T13:34:42;2.25;;;1.70;;
75071;SDS011;63651;55.728;38.022;2023-03-14T13:39:43;3.58;;;1.80;;
75071;SDS011;63651;55.728;38.022;2023-03-14T13:44:51;2.35;;;1.73;;
75071;SDS011;63651;55.728;38.022;2023-03-14T13:49:54;2.33;;;1.85;;
75071;SDS011;63651;55.728;38.022;2023-03-14T13:54:56;3.00;;;1.70;;
75071;SDS011;63651;55.728;38.022;2023-03-14T14:00:04;3.15;;;2.22;;
75071;SDS011;63651;55.728;38.022;2023-03-14T14:05:10;2.60;;;2.10;;
75071;SDS011;63651;55.728;38.022;2023-03-14T14:10:12;3.53;;;2.05;;
75071;SDS011;63651;55.728;38.022;2023-03-14T14:15:18;3.63;;;1.88;;
75071;SDS011;63651;55.728;38.022;2023-03-14T14:20:30;2.92;;;1.98;;
75071;SDS011;63651;55.728;38.022;2023-03-14T14:25:43;2.65;;;2.03;;
75071;SDS011;63651;55.728;38.022;2023-03-14T14:30:45;2.60;;;1.92;;
75071;SDS011;63651;55.728;38.022;2023-03-14T14:36:04;5.63;;;2.70;;
75071;SDS011;63651;55.728;38.022;2023-03-14T14:41:13;3.75;;;2.30;;
75071;SDS011;63651;55.728;38.022;2023-03-14T14:46:16;3.45;;;2.38;;
75071;SDS011;63651;55.728;38.022;2023-03-14T14:51:22;5.05;;;2.70;;
75071;SDS011;63651;55.728;38.022;2023-03-14T14:56:34;2.83;;;2.20;;
75071;SDS011;63651;55.728;38.022;2023-03-14T15:01:38;4.50;;;2.38;;
75071;SDS011;63651;55.728;38.022;2023-03-14T15:06:44;3.58;;;2.65;;
75071;SDS011;63651;55.728;38.022;2023-03-14T15:11:48;4.53;;;1.90;;
75071;SDS011;63651;55.728;38.022;2023-03-14T15:16:49;3.22;;;1.92;;
75071;SDS011;63651;55.728;38.022;2023-03-14T15:21:52;2.63;;;1.95;;
75071;SDS011;63651;55.728;38.022;2023-03-14T15:26:53;3.25;;;2.60;;
75071;SDS011;63651;55.728;38.022;2023-03-14T15:31:54;3.72;;;2.35;;
75071;SDS011;63651;55.728;38.022;2023-03-14T15:36:55;3.72;;;2.38;;
75071;SDS011;63651;55.728;38.022;2023-03-14T15:41:56;4.38;;;2.88;;
75071;SDS011;63651;55.728;38.022;2023-03-14T15:46:57;3.10;;;2.28;;
75071;SDS011;63651;55.728;38.022;2023-03-14T15:51:58;3.08;;;2.15;;
75071;SDS011;63651;55.728;38.022;2023-03-14T15:57:00;4.90;;;2.67;;
75071;SDS011;63651;55.728;38.022;2023-03-14T16:02:01;3.72;;;2.30;;
75071;SDS011;63651;55.728;38.022;2023-03-14T16:07:02;3.40;;;2.50;;
75071;SDS011;63651;55.728;38.022;2023-03-14T16:12:03;2.85;;;2.10;;
75071;SDS011;63651;55.728;38.022;2023-03-14T16:17:05;2.88;;;2.03;;
75071;SDS011;63651;55.728;38.022;2023-03-14T16:22:11;3.20;;;1.77;;
75071;SDS011;63651;55.728;38.022;2023-03-14T16:27:12;2.28;;;1.83;;
75071;SDS011;63651;55.728;38.022;2023-03-14T16:32:13;3.13;;;2.00;;
75071;SDS011;63651;55.728;38.022;2023-03-14T16:37:14;4.55;;;2.03;;
75071;SDS011;63651;55.728;38.022;2023-03-14T16:42:15;3.58;;;1.80;;
75071;SDS011;63651;55.728;38.022;2023-03-14T16:47:17;3.28;;;2.30;;
75071;SDS011;63651;55.728;38.022;2023-03-14T16:52:18;3.30;;;2.00;;
75071;SDS011;63651;55.728;38.022;2023-03-14T16:57:19;3.35;;;1.65;;
75071;SDS011;63651;55.728;38.022;2023-03-14T17:02:20;3.08;;;1.95;;
75071;SDS011;63651;55.728;38.022;2023-03-14T17:07:21;5.57;;;2.00;;
75071;SDS011;63651;55.728;38.022;2023-03-14T17:12:22;3.55;;;2.03;;
75071;SDS011;63651;55.728;38.022;2023-03-14T17:17:23;4.55;;;2.08;;
75071;SDS011;63651;55.728;38.022;2023-03-14T17:22:24;3.08;;;1.95;;
75071;SDS011;63651;55.728;38.022;2023-03-14T17:27:26;3.35;;;2.47;;
75071;SDS011;63651;55.728;38.022;2023-03-14T17:32:28;2.90;;;1.80;;
75071;SDS011;63651;55.728;38.022;2023-03-14T17:37:29;2.63;;;2.17;;
75071;SDS011;63651;55.728;38.022;2023-03-14T17:42:30;2.53;;;1.60;;
75071;SDS011;63651;55.728;38.022;2023-03-14T17:47:31;2.50;;;1.73;;
75071;SDS011;63651;55.728;38.022;2023-03-14T17:52:32;3.33;;;1.83;;
75071;SDS011;63651;55.728;38.022;2023-03-14T17:57:37;4.32;;;1.73;;
75071;SDS011;63651;55.728;38.022;2023-03-14T18:02:39;2.10;;;1.70;;
75071;SDS011;63651;55.728;38.022;2023-03-14T18:07:44;3.20;;;1.42;;
75071;SDS011;63651;55.728;38.022;2023-03-14T18:12:45;2.47;;;1.75;;
75071;SDS011;63651;55.728;38.022;2023-03-14T18:17:46;5.03;;;1.92;;
75071;SDS011;63651;55.728;38.022;2023-03-14T18:22:47;3.10;;;1.65;;
75071;SDS011;63651;55.728;38.022;2023-03-14T18:27:48;2.60;;;1.67;;
75071;SDS011;63651;55.728;38.022;2023-03-14T18:32:49;2.33;;;1.58;;
75071;SDS011;63651;55.728;38.022;2023-03-14T18:37:50;2.92;;;1.50;;
75071;SDS011;63651;55.728;38.022;2023-03-14T18:42:51;2.42;;;1.40;;
75071;SDS011;63651;55.728;38.022;2023-03-14T18:47:54;2.45;;;1.40;;
75071;SDS011;63651;55.728;38.022;2023-03-14T18:52:55;2.83;;;1.65;;
75071;SDS011;63651;55.728;38.022;2023-03-14T18:57:55;2.03;;;1.40;;
75071;SDS011;63651;55.728;38.022;2023-03-14T19:02:56;2.35;;;1.23;;
75071;SDS011;63651;55.728;38.022;2023-03-14T19:07:58;3.17;;;1.30;;
75071;SDS011;63651;55.728;38.022;2023-03-14T19:12:59;3.28;;;1.13;;
75071;SDS011;63651;55.728;38.022;2023-03-14T19:18:00;2.53;;;1.50;;
75071;SDS011;63651;55.728;38.022;2023-03-14T19:23:01;2.00;;;1.23;;
75071;SDS011;63651;55.728;38.022;2023-03-14T19:28:03;1.70;;;1.08;;
75071;SDS011;63651;55.728;38.022;2023-03-14T19:33:04;2.55;;;1.48;;
75071;SDS011;63651;55.728;38.022;2023-03-14T19:38:05;2.00;;;1.20;;
75071;SDS011;63651;55.728;38.022;2023-03-14T19:43:06;1.50;;;1.10;;
75071;SDS011;63651;55.728;38.022;2023-03-14T19:48:09;2.35;;;1.30;;
75071;SDS011;63651;55.728;38.022;2023-03-14T19:53:11;1.70;;;1.10;;
75071;SDS011;63651;55.728;38.022;2023-03-14T19:58:12;2.35;;;1.27;;
75071;SDS011;63651;55.728;38.022;2023-03-14T20:03:13;1.95;;;1.23;;
75071;SDS011;63651;55.728;38.022;2023-03-14T20:08:14;1.73;;;1.08;;
75071;SDS011;63651;55.728;38.022;2023-03-14T20:13:16;2.83;;;1.30;;
75071;SDS011;63651;55.728;38.022;2023-03-14T20:18:17;2.80;;;1.27;;
75071;SDS011;63651;55.728;38.022;2023-03-14T20:23:18;1.92;;;1.20;;
75071;SDS011;63651;55.728;38.022;2023-03-14T20:28:19;3.53;;;1.20;;
75071;SDS011;63651;55.728;38.022;2023-03-14T20:33:20;2.08;;;1.05;;
75071;SDS011;63651;55.728;38.022;2023-03-14T20:38:22;1.73;;;1.20;;
75071;SDS011;63651;55.728;38.022;2023-03-14T20:43:26;1.30;;;0.93;;
75071;SDS011;63651;55.728;38.022;2023-03-14T20:48:28;2.40;;;1.08;;
75071;SDS011;63651;55.728;38.022;2023-03-14T20:53:30;1.33;;;0.93;;
75071;SDS011;63651;55.728;38.022;2023-03-14T20:58:31;2.40;;;1.30;;
75071;SDS011;63651;55.728;38.022;2023-03-14T21:03:33;2.30;;;0.90;;
75071;SDS011;63651;55.728;38.022;2023-03-14T21:08:34;1.45;;;1.05;;
75071;SDS011;63651;55.728;38.022;2023-03-14T21:13:35;1.83;;;0.98;;
75071;SDS011;63651;55.728;38.022;2023-03-14T21:18:36;1.70;;;0.98;;
75071;SDS011;63651;55.728;38.022;2023-03-14T21:23:37;1.52;;;0.90;;
75071;SDS011;63651;55.728;38.022;2023-03-14T21:28:38;1.65;;;0.95;;
75071;SDS011;63651;55.728;38.022;2023-03-14T21:33:39;1.80;;;1.00;;
75071;SDS011;63651;55.728;38.022;2023-03-14T21:38:40;2.20;;;0.82;;
75071;SDS011;63651;55.728;38.022;2023-03-14T21:43:41;2.40;;;0.95;;
75071;SDS011;63651;55.728;38.022;2023-03-14T21:48:45;1.45;;;0.80;;
75071;SDS011;63651;55.728;38.022;2023-03-14T21:53:46;1.38;;;0.82;;
75071;SDS011;63651;55.728;38.022;2023-03-14T21:58:47;1.33;;;0.88;;
75071;SDS011;63651;55.728;38.022;2023-03-14T22:03:48;1.63;;;0.77;;
75071;SDS011;63651;55.728;38.022;2023-03-14T22:08:49;1.98;;;0.93;;
75071;SDS011;63651;55.728;38.022;2023-03-14T22:13:50;1.55;;;0.88;;
75071;SDS011;63651;55.728;38.022;2023-03-14T22:18:51;2.40;;;1.35;;
75071;SDS011;63651;55.728;38.022;2023-03-14T22:23:52;1.55;;;1.10;;
75071;SDS011;63651;55.728;38.022;2023-03-14T22:28:53;2.10;;;1.05;;
75071;SDS011;63651;55.728;38.022;2023-03-14T22:33:54;2.25;;;1.67;;
75071;SDS011;63651;55.728;38.022;2023-03-14T22:38:55;2.58;;;1.33;;
75071;SDS011;63651;55.728;38.022;2023-03-14T22:43:57;2.95;;;1.73;;
75071;SDS011;63651;55.728;38.022;2023-03-14T22:48:59;2.58;;;1.38;;
75071;SDS011;63651;55.728;38.022;2023-03-14T22:54:00;2.03;;;1.17;;
75071;SDS011;63651;55.728;38.022;2023-03-14T22:59:01;2.90;;;1.48;;
75071;SDS011;63651;55.728;38.022;2023-03-14T23:04:02;1.98;;;1.10;;
75071;SDS011;63651;55.728;38.022;2023-03-14T23:09:03;2.25;;;1.40;;
75071;SDS011;63651;55.728;38.022;2023-03-14T23:14:05;2.72;;;1.33;;
75071;SDS011;63651;55.728;38.022;2023-03-14T23:19:06;2.58;;;1.52;;
75071;SDS011;63651;55.728;38.022;2023-03-14T23:24:10;1.90;;;1.40;;
75071;SDS011;63651;55.728;38.022;2023-03-14T23:29:11;2.85;;;1.70;;
75071;SDS011;63651;55.728;38.022;2023-03-14T23:34:15;2.30;;;1.42;;
75071;SDS011;63651;55.728;38.022;2023-03-14T23:39:16;1.90;;;1.30;;
75071;SDS011;63651;55.728;38.022;2023-03-14T23:44:17;2.47;;;1.98;;
75071;SDS011;63651;55.728;38.022;2023-03-14T23:49:18;2.75;;;1.40;;
75071;SDS011;63651;55.728;38.022;2023-03-14T23:54:20;2.58;;;1.50;;
75071;SDS011;63651;55.728;38.022;2023-03-14T23:59:21;3.15;;;2.00;;
